マニラ/ニノイ・アキノ の空港の天気 - METARとTAF

ニノイ・アキノ国際空港 ( RPLL / MNL ) - フィリピン マニラ
飛行場実況気象(Metar)
観測時間08/07 05:00 PHT (08/06 21:00 UTC)
風向・風速北北東 2m/s
視程10km以上
天気現象
全天の4割程度の雲 雲底高度 1160m
全天の4割程度の雲 雲底高度 520m
気温26℃
湿度89%
気圧1007hPa
METARRPLL 062100Z AUTO 02004KT 9999 SCT038/// SCT017/// 26/24 Q1007
過去の天気等 Google飛行場航空写真 Wunderground天気予報

過去48時間のMETAR

飛行場予報(TAF)
発表時間: 8/07 01:00 PHT (8/06 17:00 UTC)
予報対象時間: 7日2時 PHT ~ 8日8時 PHT
風向・風速南東 5m/s
視程10km以上
全天の4割程度の雲 雲底高度 670m
全天の8割程度の雲 雲底高度 3050m
7日2時 PHT ~ 7日8時 PHT に一時的に
風向・風速南南東 6m/s 瞬間風速 11m/s
視程7000m
天気現象弱い雷雨
全天の4割程度の積乱雲 雲底高度 610m
全天の4割程度の雲 雲底高度 670m
全天を覆う雲 雲底高度 3050m
7日8時 PHT ~ 7日14時 PHT に一時的に
風向・風速南南西 8m/s
視程6000m
天気現象
全天の4割程度の雲 雲底高度 610m
全天を覆う雲 雲底高度 3050m
TAF RPLL 061700Z 0618/0724 13009KT 9999 SCT022 BKN100 TX30/0706Z TN24/0621Z
TEMPO 0618/0624 16012G22KT 7000 -TSRA SCT020CB SCT022 OVC100
TEMPO 0700/0706 21015KT 6000 RA SCT020 OVC100